NCAR-RAP Real-Time Weather Data

Output produced by METARs form (23 November 2014  22:02 UTC)
found at http://weather.rap.ucar.edu/surface/
 
Conditions at: KLOU observed 23 November 2014  21:53 UTC
Temperature: 12.2°C (54°F)
Dewpoint: 11.1°C (52°F) [RH = 93%]
Pressure (altimeter): 29.50 inches Hg (999.1 mb)
[Sea-level pressure: 998.9 mb]
Winds: from the SE (140 degrees) at 8 MPH (7 knots; 3.6 m/s)
Visibility: 8 miles (13 km)
Ceiling: 1000 feet AGL
Clouds: broken clouds at 1000 feet AGL
overcast cloud deck at 3700 feet AGL
Present Weather: -RA  (light rain)
KLOU 232153Z 14007KT 8SM -RA BKN010 OVC037 12/11 A2950 RMK AO2 SLP989 P0006 T01220111